createdAt,value
2018-01-10T00:00:04.769Z,956.17
2018-01-10T00:15:05.446Z,956.25
2018-01-10T00:30:04.580Z,956.57
2018-01-10T00:45:06.295Z,956.76
2018-01-10T01:00:05.771Z,956.97
2018-01-10T01:15:05.197Z,957.21
2018-01-10T01:30:06.546Z,957.24
2018-01-10T01:45:05.125Z,957.35
2018-01-10T02:00:04.593Z,957.61
2018-01-10T02:15:12.352Z,957.48
2018-01-10T02:30:04.774Z,958.15
2018-01-10T02:47:14.374Z,958.07
2018-01-10T03:00:07.529Z,957.99
2018-01-10T03:15:06.003Z,957.86
2018-01-10T03:30:05.232Z,957.78
2018-01-10T03:45:06.166Z,957.78
2018-01-10T04:00:04.661Z,957.75
2018-01-10T04:15:06.051Z,957.91
2018-01-10T04:30:05.224Z,957.88
2018-01-10T04:45:05.069Z,958.39
2018-01-10T05:00:08.248Z,958.12
2018-01-10T05:15:08.002Z,957.99
2018-01-10T05:30:05.642Z,957.91
2018-01-10T05:45:05.527Z,958.12
2018-01-10T06:00:04.492Z,958.36
2018-01-10T06:15:08.041Z,958.47
2018-01-10T06:30:05.109Z,958.26
2018-01-10T06:45:11.354Z,958.23
2018-01-10T07:00:05.195Z,958.26
2018-01-10T07:15:05.123Z,958.52
2018-01-10T07:30:05.908Z,958.2
2018-01-10T07:45:05.593Z,958.15
2018-01-10T08:00:07.909Z,958.23
2018-01-10T08:15:05.278Z,957.4
2018-01-10T08:30:04.404Z,956.2
2018-01-10T08:45:05.940Z,960.87
2018-01-10T09:00:12.054Z,960.31
2018-01-10T09:15:07.643Z,960.28
2018-01-10T09:30:05.232Z,960.55
2018-01-10T09:45:10.842Z,960.76
2018-01-10T10:00:05.171Z,960.58
2018-01-10T10:15:07.622Z,960.12
2018-01-10T10:30:06.303Z,959.85
2018-01-10T10:45:05.210Z,959.44
2018-01-10T11:00:05.125Z,958.85
2018-01-10T11:15:04.519Z,958.26
2018-01-10T11:30:05.158Z,957.93
2018-01-10T11:47:13.732Z,957.74
2018-01-10T12:00:05.134Z,957.63
2018-01-10T12:15:04.980Z,957.66
2018-01-10T12:30:05.157Z,957.53
2018-01-10T12:45:05.022Z,956.72
2018-01-10T13:00:04.400Z,956.93
2018-01-10T13:15:40.433Z,956.82
2018-01-10T13:30:05.123Z,957.09
2018-01-10T13:45:04.571Z,957.28
2018-01-10T14:00:04.451Z,957.01
2018-01-10T14:15:04.821Z,957.09
2018-01-10T14:30:04.884Z,957.09
2018-01-10T14:45:04.727Z,957.5
2018-01-10T15:00:04.582Z,957.8
2018-01-10T15:15:04.475Z,958.36
2018-01-10T15:30:04.593Z,958.42
2018-01-10T15:45:05.076Z,958.28
2018-01-10T16:00:04.958Z,958.26
2018-01-10T16:15:05.444Z,958.36
2018-01-10T16:30:04.643Z,958.26
2018-01-10T16:45:06.171Z,958.36
2018-01-10T17:00:06.138Z,958.63
2018-01-10T17:15:07.632Z,958.82
2018-01-10T17:30:07.762Z,958.85
2018-01-10T17:45:04.664Z,959.17
2018-01-10T18:00:11.885Z,959.44
2018-01-10T18:15:04.728Z,959.39
2018-01-10T18:30:11.526Z,959.6
2018-01-10T18:45:04.982Z,959.69
2018-01-10T19:00:04.640Z,959.82
2018-01-10T19:15:06.381Z,959.74
2018-01-10T19:30:08.543Z,959.82
2018-01-10T19:45:04.957Z,959.98
2018-01-10T20:00:08.144Z,960.31
2018-01-10T20:15:04.524Z,960.36
2018-01-10T20:30:08.406Z,960.44
2018-01-10T20:45:06.049Z,960.79
2018-01-10T21:00:06.324Z,960.66
2018-01-10T21:15:06.521Z,960.82
2018-01-10T21:30:16.556Z,961.09
2018-01-10T21:45:04.615Z,961.28
2018-01-10T22:00:04.994Z,961.57
2018-01-10T22:15:04.415Z,961.25
2018-01-10T22:30:06.065Z,961.44
2018-01-10T22:45:04.723Z,961.44
2018-01-10T23:00:05.132Z,961.12
2018-01-10T23:15:07.941Z,961.22
2018-01-10T23:30:07.549Z,960.95
2018-01-10T23:45:05.083Z,960.93
